Time;durP1;ratioP1;P1;durP2;ratioP2;P2;SDS_P1;SDS_P2;PMS_P1;PMS_P2;Temp;Humidity;BMP_temperature;BMP_pressure;BME280_temperature;BME280_humidity;BME280_pressure;Samples;Min_cycle;Max_cycle;Signal;HPM_P1;HPM_P2
2022/03/11 00:00:04;;;;;;;15.80;7.88;;;5.20;99.90;;;;;;5035527;28;20049;-73
2022/03/11 00:02:30;;;;;;;14.20;8.30;;;5.10;99.90;;;;;;5035536;28;20047;-73
2022/03/11 00:04:57;;;;;;;14.52;8.55;;;5.10;99.90;;;;;;5035565;28;20495;-74
2022/03/11 00:07:32;;;;;;;15.05;9.07;;;5.00;99.90;;;;;;5052497;28;20052;-74
2022/03/11 00:09:58;;;;;;;11.10;7.20;;;4.90;99.90;;;;;;5035642;28;20041;-73
2022/03/11 00:12:24;;;;;;;16.23;8.15;;;4.90;99.90;;;;;;5052390;28;20043;-73
2022/03/11 00:14:50;;;;;;;12.48;7.80;;;4.90;99.90;;;;;;5035128;28;20076;-73
2022/03/11 00:17:16;;;;;;;14.43;7.95;;;4.80;99.90;;;;;;5051776;28;20481;-73
2022/03/11 00:19:41;;;;;;;14.57;7.38;;;5.20;99.90;;;;;;5035145;28;20355;-73
2022/03/11 00:22:07;;;;;;;13.63;8.52;;;4.70;99.90;;;;;;5035325;28;20051;-73
2022/03/11 00:24:33;;;;;;;14.00;8.48;;;5.40;99.90;;;;;;5051920;28;20041;-73
2022/03/11 00:26:58;;;;;;;11.85;7.80;;;4.70;99.90;;;;;;5051929;28;20101;-73
2022/03/11 00:29:24;;;;;;;14.80;7.90;;;5.30;99.90;;;;;;5051575;28;20084;-73
2022/03/11 00:31:50;;;;;;;13.38;8.02;;;4.60;99.90;;;;;;5051766;28;20048;-73
2022/03/11 00:34:17;;;;;;;11.93;7.60;;;5.10;99.90;;;;;;5051687;28;20049;-72
2022/03/11 00:36:44;;;;;;;11.27;7.07;;;4.50;99.90;;;;;;5034778;28;20041;-72
2022/03/11 00:39:10;;;;;;;14.85;7.63;;;4.60;99.90;;;;;;5034724;28;20048;-72
2022/03/11 00:41:36;;;;;;;12.23;7.38;;;5.20;99.90;;;;;;5051288;28;20044;-73
2022/03/11 00:44:02;;;;;;;14.27;6.80;;;4.30;99.90;;;;;;5051282;28;20040;-73
2022/03/11 00:46:28;;;;;;;11.38;7.75;;;4.20;99.90;;;;;;5051515;28;20400;-73
2022/03/11 00:48:54;;;;;;;11.35;7.43;;;4.30;99.90;;;;;;5050927;28;20048;-73
2022/03/11 00:51:19;;;;;;;12.32;7.70;;;4.20;99.90;;;;;;5051207;28;20040;-72
2022/03/11 00:53:45;;;;;;;11.65;6.70;;;4.20;99.90;;;;;;5051113;28;20048;-73
2022/03/11 00:56:11;;;;;;;14.30;9.30;;;4.30;99.90;;;;;;5034372;28;20614;-73
2022/03/11 00:58:36;;;;;;;14.25;7.47;;;4.20;99.90;;;;;;5017693;28;20131;-73
2022/03/11 01:01:03;;;;;;;12.90;8.10;;;4.30;99.90;;;;;;5050908;28;20049;-72
2022/03/11 01:03:28;;;;;;;14.30;7.30;;;4.30;99.90;;;;;;5034296;28;20041;-72
2022/03/11 01:05:54;;;;;;;11.65;7.45;;;4.30;99.90;;;;;;5051063;28;20063;-73
2022/03/11 01:08:20;;;;;;;11.27;7.32;;;5.00;99.90;;;;;;5050882;28;20052;-73
2022/03/11 01:10:46;;;;;;;13.73;8.82;;;4.30;99.90;;;;;;5017878;28;20045;-72
2022/03/11 01:13:11;;;;;;;12.43;8.20;;;4.30;99.90;;;;;;5034212;28;20488;-73
2022/03/11 01:15:37;;;;;;;12.75;8.18;;;4.30;99.90;;;;;;5050660;28;20041;-72
2022/03/11 01:18:03;;;;;;;13.95;8.20;;;4.30;99.90;;;;;;5034493;28;20045;-72
2022/03/11 01:20:28;;;;;;;12.00;7.97;;;4.30;99.90;;;;;;5050620;28;20063;-72
2022/03/11 01:22:54;;;;;;;12.40;7.63;;;4.30;99.90;;;;;;5050719;28;20131;-72
2022/03/11 01:25:20;;;;;;;13.27;8.38;;;5.60;99.90;;;;;;5034203;28;20048;-72
2022/03/11 01:27:45;;;;;;;13.10;8.38;;;4.60;99.90;;;;;;5034073;28;20139;-72
2022/03/11 01:30:16;;;;;;;16.08;8.63;;;4.40;99.90;;;;;;5017741;28;20495;-72
2022/03/11 01:32:42;;;;;;;13.45;8.60;;;4.30;99.90;;;;;;5034619;28;20103;-72
2022/03/11 01:35:09;;;;;;;13.70;8.27;;;4.20;99.90;;;;;;5050625;28;20049;-72
2022/03/11 01:37:35;;;;;;;14.73;9.07;;;4.20;99.90;;;;;;5050687;28;20025;-72
2022/03/11 01:40:01;;;;;;;16.30;9.60;;;4.20;99.90;;;;;;5050448;28;20089;-72
2022/03/11 01:42:26;;;;;;;12.32;7.80;;;4.60;99.90;;;;;;5050751;28;20072;-72
2022/03/11 01:44:52;;;;;;;14.77;8.50;;;4.20;99.90;;;;;;5050740;28;20044;-72
2022/03/11 01:47:19;;;;;;;13.93;9.30;;;4.40;99.90;;;;;;5034308;28;20045;-72
2022/03/11 01:49:44;;;;;;;13.55;8.20;;;4.10;99.90;;;;;;5050556;28;20037;-72
2022/03/11 01:52:14;;;;;;;18.20;10.05;;;4.10;99.90;;;;;;5050361;28;20047;-72
2022/03/11 01:54:43;;;;;;;15.88;10.57;;;4.40;99.90;;;;;;5033865;28;20045;-72
2022/03/11 01:57:09;;;;;;;16.13;10.20;;;4.90;99.90;;;;;;5050334;28;20049;-72
2022/03/11 01:59:35;;;;;;;15.00;9.07;;;4.00;99.90;;;;;;5050765;28;20140;-72
2022/03/11 02:02:01;;;;;;;19.42;10.70;;;4.00;99.90;;;;;;5054459;28;20497;-72
2022/03/11 02:04:27;;;;;;;16.83;10.45;;;4.00;99.90;;;;;;5021469;28;20553;-72
2022/03/11 02:06:53;;;;;;;15.32;10.30;;;5.70;99.90;;;;;;5054261;28;20455;-72
2022/03/11 02:09:19;;;;;;;15.88;10.63;;;4.00;99.90;;;;;;5037906;28;20508;-72
2022/03/11 02:11:47;;;;;;;16.27;11.40;;;3.90;99.90;;;;;;5054216;28;20076;-72
2022/03/11 02:14:14;;;;;;;16.67;9.73;;;3.90;99.90;;;;;;5054276;28;20045;-72
2022/03/11 02:16:40;;;;;;;17.58;11.27;;;4.20;99.90;;;;;;5054026;28;20041;-73
2022/03/11 02:19:07;;;;;;;18.42;11.43;;;3.80;99.90;;;;;;5053975;28;20044;-73
2022/03/11 02:21:45;;;;;;;18.45;12.35;;;3.90;99.90;;;;;;5054395;28;20504;-73
2022/03/11 02:24:12;;;;;;;20.55;11.77;;;4.00;99.90;;;;;;5037314;28;20037;-72
2022/03/11 02:26:38;;;;;;;19.52;11.68;;;4.40;99.90;;;;;;5053856;28;20135;-73
2022/03/11 02:29:04;;;;;;;21.27;12.07;;;3.90;99.90;;;;;;5053847;28;20128;-73
2022/03/11 02:31:32;;;;;;;19.13;11.82;;;3.80;99.90;;;;;;5037109;28;20090;-73
2022/03/11 02:33:59;;;;;;;19.65;12.30;;;3.80;99.90;;;;;;5037112;28;20049;-73
2022/03/11 02:36:26;;;;;;;18.73;12.60;;;3.80;99.90;;;;;;5053620;28;20175;-73
2022/03/11 02:38:52;;;;;;;20.48;12.38;;;3.80;99.90;;;;;;5053819;28;20041;-73
2022/03/11 02:41:18;;;;;;;21.83;13.18;;;3.80;99.90;;;;;;5053692;28;20498;-73
2022/03/11 02:43:44;;;;;;;22.10;13.20;;;4.30;99.90;;;;;;5053777;28;20118;-72
2022/03/11 02:46:10;;;;;;;25.33;13.35;;;3.80;99.90;;;;;;5053548;28;20548;-72
2022/03/11 02:48:37;;;;;;;20.80;12.70;;;3.80;99.90;;;;;;5037405;28;20045;-72
2022/03/11 02:51:03;;;;;;;23.10;13.85;;;3.70;99.90;;;;;;5037183;28;20044;-72
2022/03/11 02:53:29;;;;;;;20.88;12.45;;;3.80;99.90;;;;;;5053615;28;20515;-72
2022/03/11 02:55:55;;;;;;;21.90;14.85;;;3.70;99.90;;;;;;5053169;28;20119;-72
2022/03/11 02:58:21;;;;;;;22.02;14.70;;;3.70;99.90;;;;;;5053121;28;20118;-72
2022/03/11 03:00:47;;;;;;;20.95;13.43;;;3.70;99.90;;;;;;5020274;28;20495;-72
2022/03/11 03:03:12;;;;;;;22.08;14.23;;;3.60;99.90;;;;;;5053189;28;20073;-72
2022/03/11 03:05:38;;;;;;;23.48;14.52;;;3.60;99.90;;;;;;5053599;28;20518;-73
2022/03/11 03:08:04;;;;;;;23.15;14.80;;;4.20;99.90;;;;;;5036714;28;20049;-72
2022/03/11 03:10:30;;;;;;;24.85;15.68;;;3.50;99.90;;;;;;5053157;28;20392;-72
2022/03/11 03:12:56;;;;;;;20.65;13.80;;;4.30;99.90;;;;;;5052961;28;20044;-72
2022/03/11 03:15:21;;;;;;;22.15;13.85;;;3.40;99.90;;;;;;5053131;28;20484;-72
2022/03/11 03:17:47;;;;;;;22.15;14.00;;;3.40;99.90;;;;;;5036419;28;20040;-72
2022/03/11 03:20:14;;;;;;;24.52;14.48;;;3.40;99.90;;;;;;5052856;28;20045;-73
2022/03/11 03:22:40;;;;;;;24.67;15.10;;;3.40;99.90;;;;;;5036851;28;20037;-73
2022/03/11 03:25:08;;;;;;;25.27;16.15;;;3.80;99.90;;;;;;5036165;28;20094;-73
2022/03/11 03:27:34;;;;;;;23.77;14.95;;;3.30;99.90;;;;;;5020676;28;20492;-73
2022/03/11 03:29:59;;;;;;;27.77;17.48;;;3.30;99.90;;;;;;5036048;28;20082;-73
2022/03/11 03:32:25;;;;;;;25.02;14.88;;;3.20;99.90;;;;;;5036236;28;20037;-73
2022/03/11 03:34:51;;;;;;;21.90;14.82;;;3.20;99.90;;;;;;5052967;28;20041;-73
2022/03/11 03:37:16;;;;;;;22.30;15.50;;;3.20;99.90;;;;;;5052502;28;20044;-73
2022/03/11 03:39:42;;;;;;;27.38;15.48;;;3.30;99.90;;;;;;5052885;28;20037;-73
2022/03/11 03:42:09;;;;;;;25.30;15.10;;;3.30;99.90;;;;;;5035837;28;20040;-72
2022/03/11 03:44:35;;;;;;;23.45;15.48;;;3.90;99.90;;;;;;5052580;28;20033;-73
2022/03/11 03:47:00;;;;;;;25.38;16.23;;;3.20;99.90;;;;;;5035845;28;20052;-73
2022/03/11 03:49:28;;;;;;;24.90;16.08;;;4.00;99.90;;;;;;5052379;28;20059;-73
2022/03/11 03:51:54;;;;;;;27.38;16.85;;;3.10;99.90;;;;;;5052321;28;20045;-73
2022/03/11 03:54:20;;;;;;;25.02;16.45;;;3.20;99.90;;;;;;5052209;28;20045;-73
2022/03/11 03:56:46;;;;;;;28.95;18.33;;;3.20;99.90;;;;;;5035459;28;20462;-72
2022/03/11 03:59:12;;;;;;;28.70;17.38;;;3.20;99.90;;;;;;5035473;28;20076;-72
2022/03/11 04:01:40;;;;;;;26.52;17.27;;;3.30;99.90;;;;;;5035844;28;20449;-72
2022/03/11 04:04:08;;;;;;;25.88;17.33;;;3.10;99.90;;;;;;5052028;28;20111;-72
2022/03/11 04:06:34;;;;;;;28.77;17.63;;;3.20;99.90;;;;;;5052247;28;20049;-72
2022/03/11 04:09:01;;;;;;;25.50;16.30;;;3.10;99.90;;;;;;5035819;28;20503;-72
2022/03/11 04:11:28;;;;;;;29.58;17.65;;;3.10;99.90;;;;;;5052020;28;20485;-72
2022/03/11 04:13:54;;;;;;;29.33;16.85;;;3.10;99.90;;;;;;5035179;28;20087;-72
2022/03/11 04:16:20;;;;;;;30.13;18.20;;;3.10;99.90;;;;;;5051943;28;20049;-72
2022/03/11 04:18:47;;;;;;;27.02;16.33;;;3.00;99.90;;;;;;5051729;28;20041;-72
2022/03/11 04:21:13;;;;;;;24.50;16.83;;;3.00;99.90;;;;;;5035112;28;20047;-72
2022/03/11 04:23:40;;;;;;;24.85;16.33;;;3.00;99.90;;;;;;5051111;28;20120;-72
2022/03/11 04:26:06;;;;;;;25.70;17.30;;;3.00;99.90;;;;;;5035167;28;20045;-72
2022/03/11 04:28:32;;;;;;;27.98;16.52;;;3.60;99.90;;;;;;5018672;28;20127;-73
2022/03/11 04:30:59;;;;;;;27.58;17.65;;;2.90;99.90;;;;;;5018539;28;20099;-72
2022/03/11 04:33:25;;;;;;;23.88;16.25;;;3.00;99.90;;;;;;5051683;28;20095;-72
2022/03/11 04:35:50;;;;;;;31.75;18.25;;;3.60;99.90;;;;;;5018808;28;20064;-72
2022/03/11 04:38:16;;;;;;;31.00;17.35;;;2.80;99.90;;;;;;5018523;28;20040;-72
2022/03/11 04:40:42;;;;;;;28.52;17.88;;;2.70;99.90;;;;;;5034845;28;20063;-72
2022/03/11 04:43:08;;;;;;;25.55;16.20;;;3.60;99.90;;;;;;5051989;28;20124;-72
2022/03/11 04:45:34;;;;;;;29.77;18.33;;;2.60;99.90;;;;;;5018114;28;20041;-72
2022/03/11 04:47:59;;;;;;;27.88;18.45;;;2.60;99.90;;;;;;5018411;28;20037;-72
2022/03/11 04:50:25;;;;;;;28.95;17.42;;;2.60;99.90;;;;;;5051376;28;20102;-73
2022/03/11 04:52:52;;;;;;;24.45;16.35;;;2.60;99.90;;;;;;5034965;28;20044;-73
2022/03/11 04:55:18;;;;;;;30.65;16.48;;;2.50;99.90;;;;;;5034566;28;20139;-72
2022/03/11 04:57:44;;;;;;;26.95;17.27;;;2.50;99.90;;;;;;5051569;28;20441;-73
2022/03/11 05:00:11;;;;;;;31.60;16.55;;;2.50;99.90;;;;;;5050877;28;20059;-73
2022/03/11 05:02:37;;;;;;;28.55;17.63;;;2.50;99.90;;;;;;5034682;28;20500;-72
2022/03/11 05:05:07;;;;;;;28.58;17.52;;;2.40;99.90;;;;;;5051155;28;20047;-72
2022/03/11 05:07:33;;;;;;;25.98;16.48;;;2.40;99.90;;;;;;5034700;28;20045;-72
2022/03/11 05:09:59;;;;;;;26.58;16.92;;;2.30;99.90;;;;;;5034364;28;20040;-71
2022/03/11 05:12:25;;;;;;;33.58;17.42;;;2.40;99.90;;;;;;5050780;28;20063;-71
2022/03/11 05:14:52;;;;;;;28.08;17.13;;;2.40;99.90;;;;;;5034353;28;20080;-72
2022/03/11 05:17:18;;;;;;;28.40;18.55;;;2.40;99.90;;;;;;5050769;28;20524;-72
2022/03/11 05:19:44;;;;;;;28.73;16.52;;;3.70;99.90;;;;;;5050630;28;20037;-71
2022/03/11 05:22:11;;;;;;;29.42;17.50;;;2.50;99.90;;;;;;5050807;28;20033;-72
2022/03/11 05:24:38;;;;;;;28.20;17.05;;;2.40;99.90;;;;;;5050916;28;20076;-72
2022/03/11 05:27:05;;;;;;;26.67;17.02;;;2.40;99.90;;;;;;5050615;28;20064;-72
2022/03/11 05:29:36;;;;;;;27.40;17.75;;;2.30;99.90;;;;;;5050450;28;20041;-73
2022/03/11 05:32:02;;;;;;;25.63;17.25;;;2.30;99.90;;;;;;5050902;28;20140;-72
2022/03/11 05:34:28;;;;;;;25.20;16.63;;;2.20;99.90;;;;;;5049693;28;20048;-73
2022/03/11 05:36:54;;;;;;;30.52;16.45;;;2.20;99.90;;;;;;5033798;28;20029;-72
2022/03/11 05:39:20;;;;;;;28.35;16.95;;;2.20;99.90;;;;;;5050371;28;20049;-73
2022/03/11 05:41:46;;;;;;;27.00;17.23;;;2.20;99.90;;;;;;5050727;28;20049;-72
2022/03/11 05:44:17;;;;;;;25.00;16.55;;;2.20;99.90;;;;;;5034156;28;20479;-73
2022/03/11 05:46:44;;;;;;;24.90;17.85;;;2.20;99.90;;;;;;5050544;28;20045;-72
2022/03/11 05:49:10;;;;;;;27.48;18.00;;;2.10;99.90;;;;;;5050470;28;20128;-72
2022/03/11 05:51:37;;;;;;;28.00;17.50;;;2.10;99.90;;;;;;5034164;28;20086;-72
2022/03/11 05:54:03;;;;;;;30.90;18.20;;;2.10;99.90;;;;;;5050351;28;20470;-73
2022/03/11 05:56:29;;;;;;;29.02;17.45;;;2.10;99.90;;;;;;5050059;28;20041;-72
2022/03/11 05:58:55;;;;;;;27.10;16.50;;;2.10;99.90;;;;;;5033490;28;20118;-73
2022/03/11 06:01:21;;;;;;;28.65;17.95;;;2.90;99.90;;;;;;5034138;28;20040;-73
2022/03/11 06:03:46;;;;;;;29.65;17.75;;;2.10;99.90;;;;;;5033843;28;20124;-72
2022/03/11 06:06:16;;;;;;;28.42;17.25;;;2.10;99.90;;;;;;5033810;28;20044;-73
2022/03/11 06:08:42;;;;;;;28.10;17.48;;;2.10;99.90;;;;;;5050479;28;20033;-72
2022/03/11 06:11:09;;;;;;;26.55;17.05;;;2.10;99.90;;;;;;5050211;28;20055;-72
2022/03/11 06:13:35;;;;;;;30.10;17.17;;;2.20;99.90;;;;;;5050294;28;20044;-72
2022/03/11 06:16:02;;;;;;;25.75;16.80;;;2.20;99.90;;;;;;5033459;28;20119;-72
2022/03/11 06:18:27;;;;;;;27.27;17.48;;;2.20;99.90;;;;;;5050330;28;20067;-71
2022/03/11 06:20:53;;;;;;;25.48;17.52;;;2.20;99.90;;;;;;5033916;28;20049;-71
2022/03/11 06:23:19;;;;;;;28.63;17.73;;;2.30;99.90;;;;;;5033954;28;20051;-72
2022/03/11 06:25:45;;;;;;;24.80;17.08;;;2.30;99.90;;;;;;5050018;28;20044;-72
2022/03/11 06:28:10;;;;;;;29.63;18.80;;;2.30;99.90;;;;;;5050045;28;20095;-72
2022/03/11 06:30:36;;;;;;;30.23;17.80;;;2.30;99.90;;;;;;5049825;28;20368;-72
2022/03/11 06:33:02;;;;;;;27.75;17.15;;;2.40;99.90;;;;;;5017283;28;20044;-71
2022/03/11 06:35:28;;;;;;;26.05;17.65;;;2.40;99.90;;;;;;5049643;28;20053;-71
2022/03/11 06:37:54;;;;;;;26.17;16.55;;;3.20;99.90;;;;;;5050011;28;20036;-71
2022/03/11 06:40:20;;;;;;;25.25;16.08;;;2.50;99.90;;;;;;5050038;28;20036;-71
2022/03/11 06:42:47;;;;;;;28.13;17.67;;;2.50;99.90;;;;;;5050120;28;20108;-72
2022/03/11 06:45:15;;;;;;;25.88;16.05;;;2.90;99.90;;;;;;5049890;28;20135;-72
2022/03/11 06:47:42;;;;;;;25.42;16.48;;;2.60;99.90;;;;;;5053503;28;20400;-70
2022/03/11 06:50:09;;;;;;;24.75;15.52;;;2.60;99.90;;;;;;5053814;28;20044;-71
2022/03/11 06:52:35;;;;;;;26.75;17.35;;;2.60;99.90;;;;;;5036841;28;20068;-73
2022/03/11 06:55:02;;;;;;;25.35;16.50;;;2.70;99.90;;;;;;5036737;28;20149;-73
2022/03/11 06:57:28;;;;;;;28.95;17.05;;;2.90;99.90;;;;;;5053730;28;20497;-72
2022/03/11 06:59:53;;;;;;;24.88;16.50;;;2.80;99.90;;;;;;5053459;28;20147;-74
2022/03/11 07:02:19;;;;;;;27.17;17.45;;;2.90;99.90;;;;;;5020644;28;20492;-73
2022/03/11 07:04:45;;;;;;;32.08;17.77;;;3.10;99.90;;;;;;5036698;28;20124;-74
2022/03/11 07:07:11;;;;;;;28.73;17.40;;;3.00;99.90;;;;;;5053492;28;20503;-74
2022/03/11 07:09:37;;;;;;;27.98;17.52;;;3.10;99.90;;;;;;5053215;28;20063;-74
2022/03/11 07:12:03;;;;;;;25.55;15.95;;;3.10;99.90;;;;;;5053762;28;20040;-74
2022/03/11 07:14:35;;;;;;;23.35;15.23;;;3.20;99.90;;;;;;5052994;28;20080;-73
2022/03/11 07:17:02;;;;;;;27.02;17.02;;;3.20;99.90;;;;;;5053128;28;20088;-74
2022/03/11 07:19:28;;;;;;;27.50;16.52;;;3.30;99.90;;;;;;5052939;28;20032;-74
2022/03/11 07:21:58;;;;;;;28.20;17.60;;;3.40;99.90;;;;;;5036272;28;20059;-74
2022/03/11 07:24:25;;;;;;;23.50;15.07;;;3.50;99.90;;;;;;5052942;28;20076;-71
2022/03/11 07:26:50;;;;;;;25.45;15.98;;;3.50;99.90;;;;;;5036255;28;20045;-72
2022/03/11 07:29:16;;;;;;;24.63;15.98;;;4.10;99.90;;;;;;5036636;28;20132;-72
2022/03/11 07:31:42;;;;;;;25.55;16.55;;;3.80;99.90;;;;;;5036612;28;20029;-72
2022/03/11 07:34:08;;;;;;;24.52;16.27;;;3.90;99.90;;;;;;5036174;28;20041;-73
2022/03/11 07:36:34;;;;;;;25.60;17.10;;;4.00;99.90;;;;;;5019831;28;20049;-73
2022/03/11 07:39:08;;;;;;;28.00;16.38;;;4.10;99.90;;;;;;5052869;28;20048;-73
2022/03/11 07:41:34;;;;;;;23.25;16.13;;;4.20;99.90;;;;;;5035846;28;20041;-72
2022/03/11 07:44:01;;;;;;;22.95;14.38;;;4.30;99.90;;;;;;5035985;28;20083;-72
2022/03/11 07:46:28;;;;;;;28.17;16.70;;;4.40;99.90;;;;;;5036251;28;20431;-72
2022/03/11 07:48:57;;;;;;;24.02;15.50;;;5.50;99.90;;;;;;5052378;28;20049;-73
2022/03/11 07:51:27;;;;;;;25.30;15.18;;;4.60;99.90;;;;;;5035895;28;20045;-72
2022/03/11 07:53:52;;;;;;;26.45;15.75;;;4.90;99.90;;;;;;5035680;28;20644;-73
2022/03/11 07:56:18;;;;;;;24.30;15.75;;;4.80;99.90;;;;;;5052365;28;20079;-73
2022/03/11 07:58:44;;;;;;;25.15;16.05;;;5.50;99.90;;;;;;5034932;28;20416;-73
2022/03/11 08:01:11;;;;;;;24.98;14.85;;;4.90;99.90;;;;;;5052057;28;20040;-73
2022/03/11 08:03:38;;;;;;;24.05;13.43;;;5.00;99.90;;;;;;5035807;28;20044;-73
2022/03/11 08:06:06;;;;;;;26.27;16.63;;;5.00;99.90;;;;;;5052318;28;20037;-73
2022/03/11 08:08:32;;;;;;;25.42;16.98;;;5.20;99.90;;;;;;5052098;28;20045;-73
2022/03/11 08:10:58;;;;;;;24.55;15.75;;;5.20;99.90;;;;;;5052247;28;20408;-73
2022/03/11 08:13:24;;;;;;;23.70;15.30;;;5.30;99.90;;;;;;5052110;28;20052;-73
2022/03/11 08:15:50;;;;;;;24.15;14.73;;;5.40;99.90;;;;;;5051791;28;20102;-73
2022/03/11 08:18:16;;;;;;;26.50;16.83;;;5.40;99.90;;;;;;5052000;28;20044;-75
2022/03/11 08:20:42;;;;;;;21.35;15.55;;;5.50;99.90;;;;;;5035521;28;20041;-73
2022/03/11 08:23:08;;;;;;;25.85;15.85;;;5.80;99.90;;;;;;5051967;28;20041;-74
2022/03/11 08:25:37;;;;;;;24.40;15.60;;;5.60;99.90;;;;;;5052123;28;20404;-73
2022/03/11 08:28:04;;;;;;;23.48;15.32;;;5.70;99.90;;;;;;5035236;28;20040;-73
2022/03/11 08:30:31;;;;;;;26.02;16.10;;;5.80;99.90;;;;;;5035399;28;20045;-73
2022/03/11 08:32:57;;;;;;;23.20;15.82;;;6.20;99.90;;;;;;5051875;28;20127;-73
2022/03/11 08:35:24;;;;;;;24.52;16.55;;;5.90;99.90;;;;;;5018855;28;20492;-74
2022/03/11 08:37:51;;;;;;;27.58;16.02;;;5.90;99.90;;;;;;5051689;28;20044;-73
2022/03/11 08:40:23;;;;;;;25.60;15.25;;;6.10;99.90;;;;;;5035293;28;20103;-74
2022/03/11 08:42:50;;;;;;;26.05;14.50;;;6.00;99.90;;;;;;5051704;28;20045;-74
2022/03/11 08:45:16;;;;;;;22.88;15.57;;;6.00;99.90;;;;;;5002231;28;20152;-74
2022/03/11 08:47:42;;;;;;;27.92;17.13;;;5.90;99.90;;;;;;5051620;28;20047;-74
2022/03/11 08:50:08;;;;;;;23.65;14.68;;;6.10;99.90;;;;;;5034836;28;20037;-73
2022/03/11 08:52:36;;;;;;;25.33;16.20;;;6.10;99.90;;;;;;5035112;28;20051;-73
2022/03/11 08:55:02;;;;;;;26.20;16.23;;;6.20;99.90;;;;;;5051300;28;20037;-74
2022/03/11 08:57:28;;;;;;;29.83;17.10;;;6.30;99.90;;;;;;5051043;28;20049;-73
2022/03/11 08:59:54;;;;;;;24.95;15.38;;;6.30;99.90;;;;;;5034472;28;20566;-73
2022/03/11 09:02:22;;;;;;;23.48;16.58;;;6.40;99.90;;;;;;5018505;28;20095;-73
2022/03/11 09:04:48;;;;;;;22.77;15.95;;;6.50;99.90;;;;;;5034492;28;20043;-73
2022/03/11 09:07:14;;;;;;;22.83;15.82;;;6.50;99.90;;;;;;5051003;28;20071;-73
2022/03/11 09:09:40;;;;;;;23.15;15.38;;;6.60;99.90;;;;;;5050833;28;20041;-73
2022/03/11 09:12:06;;;;;;;24.60;17.75;;;6.70;99.90;;;;;;5034479;28;20041;-73
2022/03/11 09:14:32;;;;;;;24.38;16.35;;;6.60;99.90;;;;;;5050904;28;20041;-73
2022/03/11 09:16:58;;;;;;;26.10;16.25;;;6.70;99.90;;;;;;5034359;28;20045;-73
2022/03/11 09:19:24;;;;;;;26.02;16.25;;;6.70;99.90;;;;;;5034388;28;20118;-73
2022/03/11 09:21:50;;;;;;;26.48;14.63;;;6.80;99.90;;;;;;5050831;28;20040;-73
2022/03/11 09:24:16;;;;;;;24.08;14.65;;;6.80;99.90;;;;;;5050983;28;20061;-73
2022/03/11 09:26:45;;;;;;;26.00;17.63;;;6.90;99.90;;;;;;5050652;28;20041;-73
2022/03/11 09:29:11;;;;;;;27.70;17.27;;;6.90;99.90;;;;;;5034693;28;20052;-72
2022/03/11 09:31:36;;;;;;;24.17;16.33;;;7.30;99.90;;;;;;5034307;28;20400;-73
2022/03/11 09:34:02;;;;;;;25.77;15.73;;;7.00;99.90;;;;;;5034000;28;20386;-73
2022/03/11 09:36:28;;;;;;;25.27;15.77;;;7.10;99.90;;;;;;5033779;28;20568;-73
2022/03/11 09:38:54;;;;;;;24.65;16.30;;;7.30;99.90;;;;;;5050506;28;20037;-73
2022/03/11 09:41:20;;;;;;;20.70;14.88;;;7.40;99.90;;;;;;5050351;28;20076;-73
2022/03/11 09:43:46;;;;;;;24.05;14.35;;;7.40;99.90;;;;;;5050664;28;20047;-72
2022/03/11 09:46:14;;;;;;;22.60;14.18;;;7.40;99.90;;;;;;5050488;28;20099;-73
2022/03/11 09:48:41;;;;;;;24.63;17.25;;;7.40;99.90;;;;;;5033779;28;20064;-73
2022/03/11 09:51:11;;;;;;;22.05;15.05;;;7.50;99.90;;;;;;5050372;28;20043;-73
2022/03/11 09:53:37;;;;;;;23.65;15.55;;;7.60;99.90;;;;;;5034069;28;20095;-73
2022/03/11 09:56:04;;;;;;;22.23;15.93;;;7.70;99.90;;;;;;5050324;28;20382;-74
2022/03/11 09:58:29;;;;;;;20.80;13.43;;;7.60;99.90;;;;;;5017160;28;20144;-73
2022/03/11 10:00:55;;;;;;;23.73;15.57;;;7.70;99.90;;;;;;5050240;28;20123;-73
2022/03/11 10:03:22;;;;;;;24.42;15.07;;;7.70;99.90;;;;;;5033695;28;20037;-73
2022/03/11 10:05:55;;;;;;;24.77;15.07;;;7.80;99.90;;;;;;5017779;28;20102;-72
2022/03/11 10:08:32;;;;;;;25.23;16.00;;;7.80;99.90;;;;;;5050516;28;20044;-73
2022/03/11 10:11:17;;;;;;;23.48;15.45;;;8.10;99.90;;;;;;5050469;28;20053;-73
2022/03/11 10:13:42;;;;;;;22.38;15.00;;;8.30;99.40;;;;;;5050341;28;20579;-73
2022/03/11 10:16:27;;;;;;;22.17;15.23;;;8.40;99.60;;;;;;5050084;28;20045;-72
2022/03/11 10:19:01;;;;;;;22.73;15.38;;;8.30;98.30;;;;;;5050290;28;20041;-72
2022/03/11 10:21:35;;;;;;;24.08;15.20;;;8.30;98.30;;;;;;5036877;28;20515;-73
2022/03/11 10:24:04;;;;;;;22.40;16.25;;;8.50;97.90;;;;;;5054480;28;20048;-73
2022/03/11 10:26:43;;;;;;;24.52;15.82;;;8.40;97.80;;;;;;5055487;28;20044;-72
2022/03/11 10:29:11;;;;;;;22.05;15.18;;;8.40;97.70;;;;;;5037474;28;20068;-74
2022/03/11 10:31:40;;;;;;;23.33;15.57;;;8.60;97.90;;;;;;5037468;28;20049;-74
2022/03/11 10:34:25;;;;;;;22.98;15.10;;;8.80;98.20;;;;;;5054137;28;20044;-74
2022/03/11 10:37:12;;;;;;;22.60;15.35;;;8.90;97.70;;;;;;5037253;28;20131;-74
2022/03/11 10:39:40;;;;;;;20.15;14.00;;;9.00;96.60;;;;;;5037463;28;20132;-73
2022/03/11 10:42:11;;;;;;;23.05;15.70;;;9.10;97.00;;;;;;5053854;28;20071;-73
2022/03/11 10:44:38;;;;;;;25.92;15.82;;;9.30;97.10;;;;;;5037290;28;20049;-73
2022/03/11 10:47:20;;;;;;;22.33;15.73;;;9.30;96.60;;;;;;5053913;28;20138;-73
2022/03/11 10:49:50;;;;;;;20.80;13.60;;;9.50;96.50;;;;;;5037116;28;20057;-73
2022/03/11 10:52:32;;;;;;;19.50;13.98;;;9.60;94.90;;;;;;5053507;28;20048;-73
2022/03/11 10:54:59;;;;;;;23.35;15.32;;;9.40;93.80;;;;;;5053568;28;20071;-73
2022/03/11 10:57:36;;;;;;;23.55;14.10;;;9.40;94.30;;;;;;5053442;28;20041;-73
2022/03/11 11:00:20;;;;;;;21.00;13.98;;;9.40;93.40;;;;;;5053414;28;20416;-74
2022/03/11 11:02:48;;;;;;;20.95;13.40;;;9.30;92.40;;;;;;5053679;28;20548;-74
2022/03/11 11:05:14;;;;;;;19.75;13.20;;;9.30;92.70;;;;;;5036751;28;20048;-73
2022/03/11 11:07:44;;;;;;;20.90;13.48;;;9.50;93.10;;;;;;5053336;28;20037;-74
2022/03/11 11:10:11;;;;;;;23.35;15.90;;;9.50;92.90;;;;;;5036608;28;20037;-73
2022/03/11 11:12:37;;;;;;;17.95;13.63;;;9.50;92.00;;;;;;5053358;28;20041;-72
2022/03/11 11:15:04;;;;;;;20.70;14.65;;;9.70;92.50;;;;;;5019981;28;20044;-73
2022/03/11 11:17:32;;;;;;;21.52;14.13;;;9.60;91.40;;;;;;5053393;28;20049;-73
2022/03/11 11:20:00;;;;;;;22.17;14.15;;;9.80;91.90;;;;;;5053174;28;20099;-74
2022/03/11 11:22:27;;;;;;;23.20;14.75;;;9.80;91.80;;;;;;5052902;28;20094;-73
2022/03/11 11:24:56;;;;;;;20.20;14.07;;;9.90;91.10;;;;;;5053117;28;20056;-72
2022/03/11 11:27:23;;;;;;;35.35;14.80;;;10.00;91.10;;;;;;5019911;28;20044;-75
2022/03/11 11:29:50;;;;;;;18.85;13.43;;;10.10;90.70;;;;;;5052907;28;20094;-76
2022/03/11 11:32:18;;;;;;;19.08;13.77;;;10.10;90.10;;;;;;5036395;28;20417;-74
2022/03/11 11:34:44;;;;;;;18.77;13.85;;;10.20;90.60;;;;;;5052669;28;20052;-73
2022/03/11 11:37:37;;;;;;;21.05;13.93;;;10.30;91.00;;;;;;5036048;28;20041;-73
2022/03/11 11:40:23;;;;;;;23.05;14.00;;;10.60;91.60;;;;;;5053015;28;20049;-73
2022/03/11 11:43:11;;;;;;;18.38;12.57;;;10.90;91.40;;;;;;5052768;28;20041;-73
2022/03/11 11:45:46;;;;;;;23.05;14.07;;;10.90;89.70;;;;;;5040491;28;20431;-73
2022/03/11 11:48:42;;;;;;;19.90;13.90;;;11.20;90.90;;;;;;5035833;28;20049;-74
2022/03/11 11:51:40;;;;;;;17.88;11.23;;;11.20;89.30;;;;;;5025237;28;20134;-73
2022/03/11 11:54:12;;;;;;;22.60;15.30;;;11.30;87.70;;;;;;5009099;28;20504;-72
2022/03/11 11:56:46;;;;;;;18.83;13.40;;;11.30;89.20;;;;;;5052238;28;20415;-73
2022/03/11 11:59:24;;;;;;;22.63;15.35;;;11.50;89.70;;;;;;5035766;28;20061;-74
2022/03/11 12:01:59;;;;;;;22.52;13.88;;;11.50;86.00;;;;;;5052314;28;20055;-74
2022/03/11 12:04:40;;;;;;;22.60;14.18;;;11.10;84.80;;;;;;5052331;28;20045;-73
2022/03/11 12:07:05;;;;;;;;;;;11.40;86.90;;;;;;5052802;28;20107;-73
2022/03/11 12:12:09;;;;;;;18.38;13.82;;;12.10;86.50;;;;;;5052148;28;20044;-73
2022/03/11 12:15:01;;;;;;;21.67;14.50;;;12.30;86.70;;;;;;5035436;28;20111;-73
2022/03/11 12:17:36;;;;;;;17.65;12.75;;;12.70;85.10;;;;;;5041293;28;20085;-74
2022/03/11 12:20:45;;;;;;;16.88;12.88;;;12.50;80.60;;;;;;5051946;28;20079;-77
2022/03/11 12:23:18;;;;;;;16.25;12.48;;;12.70;79.80;;;;;;5051868;28;20044;-73
2022/03/11 12:25:44;;;;;;;16.85;13.32;;;12.70;80.10;;;;;;5051916;28;20091;-75
2022/03/11 12:28:18;;;;;;;17.92;12.30;;;12.80;78.30;;;;;;5035086;28;20045;-74
2022/03/11 12:30:47;;;;;;;18.00;12.30;;;13.00;76.30;;;;;;5051991;28;20036;-73
2022/03/11 12:33:21;;;;;;;17.65;11.88;;;12.90;74.10;;;;;;5051705;28;20064;-73
2022/03/11 12:35:50;;;;;;;16.23;12.60;;;13.10;74.90;;;;;;5051422;28;20128;-73
2022/03/11 12:38:18;;;;;;;17.80;12.80;;;12.90;75.80;;;;;;5051633;28;20096;-73
2022/03/11 12:40:45;;;;;;;19.48;13.32;;;13.20;76.20;;;;;;5051754;28;20128;-74
2022/03/11 12:43:13;;;;;;;18.77;12.70;;;13.20;76.80;;;;;;5051279;28;20044;-74